Terminal Aerodrome Forecast
Issued by NWS Twin Cities, MN

Home | Current Version | Previous Version | Graphics & Text | Print | Product List | Glossary On
Versions: 1 2 3 4 5 6 7 8 9 10 11 12 13 14
000
FTUS43 KMPX 210520
TAFEAU
TAF
KEAU 210520Z 2106/2206 29008KT P6SM FEW010 SCT020 SCT100
      TEMPO 2106/2110 BKN007
     FM211200 29008KT P6SM SCT250
     FM220100 22003KT P6SM FEW250=

USA.gov is the U.S. government's official web portal to all federal, state and local government web resources and services.